sensor_id;sensor_type;location;lat;lon;timestamp;P1;durP1;ratioP1;P2;durP2;ratioP2
20181;SDS011;10250;50.756;6.172;2022-07-23T00:01:37;14.63;;;5.20;;
20181;SDS011;10250;50.756;6.172;2022-07-23T00:03:38;14.77;;;4.83;;
20181;SDS011;10250;50.756;6.172;2022-07-23T00:05:39;16.10;;;5.63;;
20181;SDS011;10250;50.756;6.172;2022-07-23T00:07:40;14.73;;;4.47;;
20181;SDS011;10250;50.756;6.172;2022-07-23T00:09:41;14.77;;;4.70;;
20181;SDS011;10250;50.756;6.172;2022-07-23T00:11:41;14.53;;;4.63;;
20181;SDS011;10250;50.756;6.172;2022-07-23T00:13:42;15.80;;;5.03;;
20181;SDS011;10250;50.756;6.172;2022-07-23T00:15:43;15.90;;;4.77;;
20181;SDS011;10250;50.756;6.172;2022-07-23T00:17:43;17.03;;;5.40;;
20181;SDS011;10250;50.756;6.172;2022-07-23T00:19:44;16.00;;;5.83;;
20181;SDS011;10250;50.756;6.172;2022-07-23T00:21:45;16.80;;;6.33;;
20181;SDS011;10250;50.756;6.172;2022-07-23T00:23:45;15.03;;;5.43;;
20181;SDS011;10250;50.756;6.172;2022-07-23T00:25:46;18.50;;;6.13;;
20181;SDS011;10250;50.756;6.172;2022-07-23T00:27:46;20.20;;;7.17;;
20181;SDS011;10250;50.756;6.172;2022-07-23T00:29:47;17.83;;;6.73;;
20181;SDS011;10250;50.756;6.172;2022-07-23T00:31:48;17.33;;;6.00;;
20181;SDS011;10250;50.756;6.172;2022-07-23T00:33:48;19.03;;;6.73;;
20181;SDS011;10250;50.756;6.172;2022-07-23T00:35:49;19.37;;;7.27;;
20181;SDS011;10250;50.756;6.172;2022-07-23T00:37:49;20.67;;;7.07;;
20181;SDS011;10250;50.756;6.172;2022-07-23T00:39:50;16.77;;;6.37;;
20181;SDS011;10250;50.756;6.172;2022-07-23T00:41:51;19.57;;;7.30;;
20181;SDS011;10250;50.756;6.172;2022-07-23T00:43:52;19.80;;;7.13;;
20181;SDS011;10250;50.756;6.172;2022-07-23T00:45:52;18.87;;;7.27;;
20181;SDS011;10250;50.756;6.172;2022-07-23T00:47:53;21.93;;;8.07;;
20181;SDS011;10250;50.756;6.172;2022-07-23T00:49:54;20.77;;;7.87;;
20181;SDS011;10250;50.756;6.172;2022-07-23T00:51:54;19.67;;;7.10;;
20181;SDS011;10250;50.756;6.172;2022-07-23T00:53:55;18.90;;;7.27;;
20181;SDS011;10250;50.756;6.172;2022-07-23T00:55:56;23.83;;;8.23;;
20181;SDS011;10250;50.756;6.172;2022-07-23T00:57:58;20.63;;;7.37;;
20181;SDS011;10250;50.756;6.172;2022-07-23T01:00:00;21.13;;;7.53;;
20181;SDS011;10250;50.756;6.172;2022-07-23T01:02:01;18.47;;;7.30;;
20181;SDS011;10250;50.756;6.172;2022-07-23T01:04:01;19.43;;;6.90;;
20181;SDS011;10250;50.756;6.172;2022-07-23T01:06:02;20.57;;;7.23;;
20181;SDS011;10250;50.756;6.172;2022-07-23T01:08:03;20.47;;;7.63;;
20181;SDS011;10250;50.756;6.172;2022-07-23T01:10:05;20.30;;;7.37;;
20181;SDS011;10250;50.756;6.172;2022-07-23T01:12:26;20.80;;;7.73;;
20181;SDS011;10250;50.756;6.172;2022-07-23T01:14:27;20.13;;;7.60;;
20181;SDS011;10250;50.756;6.172;2022-07-23T01:16:28;21.73;;;8.40;;
20181;SDS011;10250;50.756;6.172;2022-07-23T01:18:28;18.90;;;7.47;;
20181;SDS011;10250;50.756;6.172;2022-07-23T01:20:29;20.63;;;7.10;;
20181;SDS011;10250;50.756;6.172;2022-07-23T01:22:30;19.83;;;7.77;;
20181;SDS011;10250;50.756;6.172;2022-07-23T01:24:31;18.13;;;7.17;;
20181;SDS011;10250;50.756;6.172;2022-07-23T01:26:31;21.23;;;7.73;;
20181;SDS011;10250;50.756;6.172;2022-07-23T01:28:32;18.00;;;6.37;;
20181;SDS011;10250;50.756;6.172;2022-07-23T01:30:32;18.50;;;6.87;;
20181;SDS011;10250;50.756;6.172;2022-07-23T01:32:33;20.57;;;7.63;;
20181;SDS011;10250;50.756;6.172;2022-07-23T01:34:34;23.17;;;7.43;;
20181;SDS011;10250;50.756;6.172;2022-07-23T01:36:35;18.87;;;6.90;;
20181;SDS011;10250;50.756;6.172;2022-07-23T01:38:37;19.93;;;7.67;;
20181;SDS011;10250;50.756;6.172;2022-07-23T01:40:37;21.57;;;7.47;;
20181;SDS011;10250;50.756;6.172;2022-07-23T01:42:38;20.43;;;7.23;;
20181;SDS011;10250;50.756;6.172;2022-07-23T01:44:38;21.47;;;7.83;;
20181;SDS011;10250;50.756;6.172;2022-07-23T01:46:39;22.03;;;8.00;;
20181;SDS011;10250;50.756;6.172;2022-07-23T01:48:40;19.03;;;6.40;;
20181;SDS011;10250;50.756;6.172;2022-07-23T01:50:40;21.20;;;6.90;;
20181;SDS011;10250;50.756;6.172;2022-07-23T01:52:41;19.00;;;6.53;;
20181;SDS011;10250;50.756;6.172;2022-07-23T01:54:42;19.13;;;7.50;;
20181;SDS011;10250;50.756;6.172;2022-07-23T01:56:42;19.30;;;7.10;;
20181;SDS011;10250;50.756;6.172;2022-07-23T01:58:43;17.13;;;6.43;;
20181;SDS011;10250;50.756;6.172;2022-07-23T02:00:43;17.40;;;6.10;;
20181;SDS011;10250;50.756;6.172;2022-07-23T02:02:44;18.53;;;7.37;;
20181;SDS011;10250;50.756;6.172;2022-07-23T02:04:44;16.87;;;6.33;;
20181;SDS011;10250;50.756;6.172;2022-07-23T02:06:45;20.33;;;7.23;;
20181;SDS011;10250;50.756;6.172;2022-07-23T02:08:46;18.63;;;6.73;;
20181;SDS011;10250;50.756;6.172;2022-07-23T02:10:47;18.87;;;7.13;;
20181;SDS011;10250;50.756;6.172;2022-07-23T02:12:48;17.33;;;6.47;;
20181;SDS011;10250;50.756;6.172;2022-07-23T02:14:49;17.30;;;6.80;;
20181;SDS011;10250;50.756;6.172;2022-07-23T02:16:49;19.23;;;6.57;;
20181;SDS011;10250;50.756;6.172;2022-07-23T02:18:50;18.77;;;6.80;;
20181;SDS011;10250;50.756;6.172;2022-07-23T02:20:50;17.53;;;6.20;;
20181;SDS011;10250;50.756;6.172;2022-07-23T02:22:51;20.87;;;7.27;;
20181;SDS011;10250;50.756;6.172;2022-07-23T02:24:52;18.03;;;5.93;;
20181;SDS011;10250;50.756;6.172;2022-07-23T02:26:52;17.07;;;6.43;;
20181;SDS011;10250;50.756;6.172;2022-07-23T02:28:53;17.43;;;6.47;;
20181;SDS011;10250;50.756;6.172;2022-07-23T02:30:53;17.77;;;5.70;;
20181;SDS011;10250;50.756;6.172;2022-07-23T02:32:54;16.80;;;6.40;;
20181;SDS011;10250;50.756;6.172;2022-07-23T02:34:55;19.20;;;6.73;;
20181;SDS011;10250;50.756;6.172;2022-07-23T02:36:56;19.60;;;6.47;;
20181;SDS011;10250;50.756;6.172;2022-07-23T02:38:56;19.10;;;6.77;;
20181;SDS011;10250;50.756;6.172;2022-07-23T02:40:57;18.00;;;6.33;;
20181;SDS011;10250;50.756;6.172;2022-07-23T02:42:58;18.33;;;6.07;;
20181;SDS011;10250;50.756;6.172;2022-07-23T02:44:59;17.00;;;6.13;;
20181;SDS011;10250;50.756;6.172;2022-07-23T02:46:59;18.87;;;6.60;;
20181;SDS011;10250;50.756;6.172;2022-07-23T02:49:00;17.13;;;6.33;;
20181;SDS011;10250;50.756;6.172;2022-07-23T02:51:01;16.57;;;5.27;;
20181;SDS011;10250;50.756;6.172;2022-07-23T02:53:02;18.47;;;6.23;;
20181;SDS011;10250;50.756;6.172;2022-07-23T02:55:02;16.27;;;5.73;;
20181;SDS011;10250;50.756;6.172;2022-07-23T02:57:03;19.03;;;6.47;;
20181;SDS011;10250;50.756;6.172;2022-07-23T02:59:04;18.67;;;6.27;;
20181;SDS011;10250;50.756;6.172;2022-07-23T03:01:05;19.13;;;6.67;;
20181;SDS011;10250;50.756;6.172;2022-07-23T03:03:06;18.20;;;6.63;;
20181;SDS011;10250;50.756;6.172;2022-07-23T03:05:07;16.70;;;6.30;;
20181;SDS011;10250;50.756;6.172;2022-07-23T03:07:08;17.20;;;5.90;;
20181;SDS011;10250;50.756;6.172;2022-07-23T03:09:09;15.10;;;5.43;;
20181;SDS011;10250;50.756;6.172;2022-07-23T03:11:09;17.17;;;5.93;;
20181;SDS011;10250;50.756;6.172;2022-07-23T03:13:13;17.00;;;6.00;;
20181;SDS011;10250;50.756;6.172;2022-07-23T03:15:13;19.07;;;6.30;;
20181;SDS011;10250;50.756;6.172;2022-07-23T03:17:14;14.83;;;5.30;;
20181;SDS011;10250;50.756;6.172;2022-07-23T03:19:15;17.77;;;6.13;;
20181;SDS011;10250;50.756;6.172;2022-07-23T03:21:16;19.37;;;5.80;;
20181;SDS011;10250;50.756;6.172;2022-07-23T03:23:17;18.23;;;5.93;;
20181;SDS011;10250;50.756;6.172;2022-07-23T03:25:18;16.23;;;6.00;;
20181;SDS011;10250;50.756;6.172;2022-07-23T03:27:18;17.23;;;5.40;;
20181;SDS011;10250;50.756;6.172;2022-07-23T03:29:19;18.10;;;6.00;;
20181;SDS011;10250;50.756;6.172;2022-07-23T03:31:20;18.13;;;6.03;;
20181;SDS011;10250;50.756;6.172;2022-07-23T03:33:21;15.50;;;5.60;;
20181;SDS011;10250;50.756;6.172;2022-07-23T03:35:21;15.87;;;5.67;;
20181;SDS011;10250;50.756;6.172;2022-07-23T03:37:22;17.23;;;5.67;;
20181;SDS011;10250;50.756;6.172;2022-07-23T03:39:23;17.67;;;6.07;;
20181;SDS011;10250;50.756;6.172;2022-07-23T03:41:23;17.03;;;6.07;;
20181;SDS011;10250;50.756;6.172;2022-07-23T03:43:24;16.67;;;5.27;;
20181;SDS011;10250;50.756;6.172;2022-07-23T03:45:25;17.53;;;5.93;;
20181;SDS011;10250;50.756;6.172;2022-07-23T03:47:26;18.87;;;5.60;;
20181;SDS011;10250;50.756;6.172;2022-07-23T03:49:27;15.33;;;5.33;;
20181;SDS011;10250;50.756;6.172;2022-07-23T03:51:27;15.60;;;5.30;;
20181;SDS011;10250;50.756;6.172;2022-07-23T03:53:28;15.13;;;5.43;;
20181;SDS011;10250;50.756;6.172;2022-07-23T03:55:29;16.57;;;5.30;;
20181;SDS011;10250;50.756;6.172;2022-07-23T03:57:29;18.00;;;5.87;;
20181;SDS011;10250;50.756;6.172;2022-07-23T03:59:30;17.17;;;6.00;;
20181;SDS011;10250;50.756;6.172;2022-07-23T04:01:31;15.83;;;5.23;;
20181;SDS011;10250;50.756;6.172;2022-07-23T04:03:32;17.63;;;6.30;;
20181;SDS011;10250;50.756;6.172;2022-07-23T04:05:32;17.53;;;6.73;;
20181;SDS011;10250;50.756;6.172;2022-07-23T04:07:33;17.50;;;5.87;;
20181;SDS011;10250;50.756;6.172;2022-07-23T04:09:33;16.87;;;5.73;;
20181;SDS011;10250;50.756;6.172;2022-07-23T04:11:34;16.30;;;5.63;;
20181;SDS011;10250;50.756;6.172;2022-07-23T04:13:35;18.23;;;7.17;;
20181;SDS011;10250;50.756;6.172;2022-07-23T04:15:35;17.57;;;6.80;;
20181;SDS011;10250;50.756;6.172;2022-07-23T04:17:37;20.00;;;6.23;;
20181;SDS011;10250;50.756;6.172;2022-07-23T04:19:38;20.07;;;6.80;;
20181;SDS011;10250;50.756;6.172;2022-07-23T04:21:41;17.70;;;6.23;;
20181;SDS011;10250;50.756;6.172;2022-07-23T04:23:41;18.33;;;6.53;;
20181;SDS011;10250;50.756;6.172;2022-07-23T04:25:42;17.07;;;6.30;;
20181;SDS011;10250;50.756;6.172;2022-07-23T04:27:43;14.00;;;5.27;;
20181;SDS011;10250;50.756;6.172;2022-07-23T04:29:43;16.60;;;5.67;;
20181;SDS011;10250;50.756;6.172;2022-07-23T04:31:44;16.40;;;5.67;;
20181;SDS011;10250;50.756;6.172;2022-07-23T04:33:44;17.40;;;6.43;;
20181;SDS011;10250;50.756;6.172;2022-07-23T04:35:45;19.63;;;6.93;;
20181;SDS011;10250;50.756;6.172;2022-07-23T04:37:46;17.77;;;6.13;;
20181;SDS011;10250;50.756;6.172;2022-07-23T04:39:46;17.67;;;6.33;;
20181;SDS011;10250;50.756;6.172;2022-07-23T04:41:47;18.87;;;5.63;;
20181;SDS011;10250;50.756;6.172;2022-07-23T04:43:48;19.07;;;6.07;;
20181;SDS011;10250;50.756;6.172;2022-07-23T04:45:48;17.83;;;6.60;;
20181;SDS011;10250;50.756;6.172;2022-07-23T04:47:49;17.83;;;6.13;;
20181;SDS011;10250;50.756;6.172;2022-07-23T04:49:49;19.97;;;6.97;;
20181;SDS011;10250;50.756;6.172;2022-07-23T04:51:50;17.37;;;6.67;;
20181;SDS011;10250;50.756;6.172;2022-07-23T04:53:51;20.60;;;6.30;;
20181;SDS011;10250;50.756;6.172;2022-07-23T04:55:52;17.77;;;6.00;;
20181;SDS011;10250;50.756;6.172;2022-07-23T04:57:52;16.63;;;6.37;;
20181;SDS011;10250;50.756;6.172;2022-07-23T04:59:53;15.80;;;5.60;;
20181;SDS011;10250;50.756;6.172;2022-07-23T05:01:53;17.20;;;5.70;;
20181;SDS011;10250;50.756;6.172;2022-07-23T05:03:54;16.63;;;5.70;;
20181;SDS011;10250;50.756;6.172;2022-07-23T05:05:59;18.40;;;6.20;;
20181;SDS011;10250;50.756;6.172;2022-07-23T05:08:00;15.50;;;6.07;;
20181;SDS011;10250;50.756;6.172;2022-07-23T05:10:00;17.43;;;5.47;;
20181;SDS011;10250;50.756;6.172;2022-07-23T05:12:01;16.07;;;5.90;;
20181;SDS011;10250;50.756;6.172;2022-07-23T05:14:01;17.60;;;6.17;;
20181;SDS011;10250;50.756;6.172;2022-07-23T05:16:02;17.07;;;6.20;;
20181;SDS011;10250;50.756;6.172;2022-07-23T05:18:03;17.70;;;6.53;;
20181;SDS011;10250;50.756;6.172;2022-07-23T05:20:03;17.03;;;5.67;;
20181;SDS011;10250;50.756;6.172;2022-07-23T05:22:04;18.33;;;5.83;;
20181;SDS011;10250;50.756;6.172;2022-07-23T05:24:05;16.27;;;5.37;;
20181;SDS011;10250;50.756;6.172;2022-07-23T05:26:06;17.47;;;6.07;;
20181;SDS011;10250;50.756;6.172;2022-07-23T05:28:07;17.57;;;6.00;;
20181;SDS011;10250;50.756;6.172;2022-07-23T05:30:07;17.37;;;6.40;;
20181;SDS011;10250;50.756;6.172;2022-07-23T05:32:08;17.93;;;6.10;;
20181;SDS011;10250;50.756;6.172;2022-07-23T05:34:09;17.90;;;6.23;;
20181;SDS011;10250;50.756;6.172;2022-07-23T05:36:09;16.83;;;6.17;;
20181;SDS011;10250;50.756;6.172;2022-07-23T05:38:10;16.77;;;5.97;;
20181;SDS011;10250;50.756;6.172;2022-07-23T05:40:11;17.57;;;5.90;;
20181;SDS011;10250;50.756;6.172;2022-07-23T05:42:11;16.30;;;6.00;;
20181;SDS011;10250;50.756;6.172;2022-07-23T05:44:12;17.03;;;6.07;;
20181;SDS011;10250;50.756;6.172;2022-07-23T05:46:13;17.17;;;5.93;;
20181;SDS011;10250;50.756;6.172;2022-07-23T05:48:13;16.43;;;6.20;;
20181;SDS011;10250;50.756;6.172;2022-07-23T05:50:14;17.00;;;6.20;;
20181;SDS011;10250;50.756;6.172;2022-07-23T05:52:16;17.93;;;5.77;;
20181;SDS011;10250;50.756;6.172;2022-07-23T05:54:16;16.70;;;6.30;;
20181;SDS011;10250;50.756;6.172;2022-07-23T05:56:17;16.23;;;5.80;;
20181;SDS011;10250;50.756;6.172;2022-07-23T05:58:18;16.17;;;5.50;;
20181;SDS011;10250;50.756;6.172;2022-07-23T06:00:19;16.63;;;5.60;;
20181;SDS011;10250;50.756;6.172;2022-07-23T06:02:20;16.27;;;5.93;;
20181;SDS011;10250;50.756;6.172;2022-07-23T06:04:20;16.03;;;5.77;;
20181;SDS011;10250;50.756;6.172;2022-07-23T06:06:21;18.27;;;5.90;;
20181;SDS011;10250;50.756;6.172;2022-07-23T06:08:21;15.73;;;6.07;;
20181;SDS011;10250;50.756;6.172;2022-07-23T06:10:22;16.80;;;5.70;;
20181;SDS011;10250;50.756;6.172;2022-07-23T06:12:23;16.23;;;5.97;;
20181;SDS011;10250;50.756;6.172;2022-07-23T06:14:24;16.00;;;6.30;;
20181;SDS011;10250;50.756;6.172;2022-07-23T06:16:25;18.60;;;6.90;;
20181;SDS011;10250;50.756;6.172;2022-07-23T06:18:25;18.43;;;6.23;;
20181;SDS011;10250;50.756;6.172;2022-07-23T06:20:26;17.07;;;6.13;;
20181;SDS011;10250;50.756;6.172;2022-07-23T06:22:26;16.80;;;6.03;;
20181;SDS011;10250;50.756;6.172;2022-07-23T06:24:27;16.67;;;5.67;;
20181;SDS011;10250;50.756;6.172;2022-07-23T06:26:27;16.80;;;6.57;;
20181;SDS011;10250;50.756;6.172;2022-07-23T06:28:28;21.30;;;7.77;;
20181;SDS011;10250;50.756;6.172;2022-07-23T06:30:29;18.27;;;7.07;;
20181;SDS011;10250;50.756;6.172;2022-07-23T06:32:29;16.83;;;6.73;;
20181;SDS011;10250;50.756;6.172;2022-07-23T06:34:30;18.47;;;7.30;;
20181;SDS011;10250;50.756;6.172;2022-07-23T06:36:30;19.93;;;8.40;;
20181;SDS011;10250;50.756;6.172;2022-07-23T06:38:31;22.13;;;7.80;;
20181;SDS011;10250;50.756;6.172;2022-07-23T06:40:31;21.33;;;7.90;;
20181;SDS011;10250;50.756;6.172;2022-07-23T06:42:32;21.53;;;8.37;;
20181;SDS011;10250;50.756;6.172;2022-07-23T06:44:33;20.60;;;8.00;;
20181;SDS011;10250;50.756;6.172;2022-07-23T06:46:33;21.90;;;8.90;;
20181;SDS011;10250;50.756;6.172;2022-07-23T06:48:34;20.00;;;8.07;;
20181;SDS011;10250;50.756;6.172;2022-07-23T06:50:35;22.27;;;7.97;;
20181;SDS011;10250;50.756;6.172;2022-07-23T06:52:36;21.87;;;8.53;;
20181;SDS011;10250;50.756;6.172;2022-07-23T06:54:36;21.80;;;8.80;;
20181;SDS011;10250;50.756;6.172;2022-07-23T06:56:37;21.13;;;8.07;;
20181;SDS011;10250;50.756;6.172;2022-07-23T06:58:38;19.47;;;7.63;;
20181;SDS011;10250;50.756;6.172;2022-07-23T07:00:38;21.87;;;8.80;;
20181;SDS011;10250;50.756;6.172;2022-07-23T07:02:39;21.50;;;8.37;;
20181;SDS011;10250;50.756;6.172;2022-07-23T07:04:40;21.83;;;7.87;;
20181;SDS011;10250;50.756;6.172;2022-07-23T07:06:40;24.37;;;9.53;;
20181;SDS011;10250;50.756;6.172;2022-07-23T07:08:41;21.40;;;7.83;;
20181;SDS011;10250;50.756;6.172;2022-07-23T07:10:43;20.87;;;7.63;;
20181;SDS011;10250;50.756;6.172;2022-07-23T07:12:43;20.40;;;8.00;;
20181;SDS011;10250;50.756;6.172;2022-07-23T07:14:44;19.60;;;7.73;;
20181;SDS011;10250;50.756;6.172;2022-07-23T07:16:44;21.27;;;8.03;;
20181;SDS011;10250;50.756;6.172;2022-07-23T07:18:45;20.23;;;7.87;;
20181;SDS011;10250;50.756;6.172;2022-07-23T07:20:46;21.13;;;8.27;;
20181;SDS011;10250;50.756;6.172;2022-07-23T07:22:46;21.90;;;8.50;;
20181;SDS011;10250;50.756;6.172;2022-07-23T07:24:47;21.23;;;8.33;;
20181;SDS011;10250;50.756;6.172;2022-07-23T07:26:47;19.63;;;8.13;;
20181;SDS011;10250;50.756;6.172;2022-07-23T07:28:48;20.53;;;8.30;;
20181;SDS011;10250;50.756;6.172;2022-07-23T07:30:48;18.07;;;6.77;;
20181;SDS011;10250;50.756;6.172;2022-07-23T07:32:49;20.57;;;7.50;;
20181;SDS011;10250;50.756;6.172;2022-07-23T07:34:50;18.87;;;7.20;;
20181;SDS011;10250;50.756;6.172;2022-07-23T07:36:50;17.37;;;6.60;;
20181;SDS011;10250;50.756;6.172;2022-07-23T07:38:51;17.87;;;6.87;;
20181;SDS011;10250;50.756;6.172;2022-07-23T07:40:51;19.50;;;7.37;;
20181;SDS011;10250;50.756;6.172;2022-07-23T07:42:53;18.50;;;7.20;;
20181;SDS011;10250;50.756;6.172;2022-07-23T07:44:56;17.90;;;6.97;;
20181;SDS011;10250;50.756;6.172;2022-07-23T07:46:57;16.73;;;6.53;;
20181;SDS011;10250;50.756;6.172;2022-07-23T07:48:57;17.97;;;6.27;;
20181;SDS011;10250;50.756;6.172;2022-07-23T07:50:58;19.93;;;7.10;;
20181;SDS011;10250;50.756;6.172;2022-07-23T07:52:58;18.40;;;7.37;;
20181;SDS011;10250;50.756;6.172;2022-07-23T07:54:59;19.13;;;7.50;;
20181;SDS011;10250;50.756;6.172;2022-07-23T07:57:00;17.77;;;6.93;;
20181;SDS011;10250;50.756;6.172;2022-07-23T07:59:00;20.77;;;7.60;;
20181;SDS011;10250;50.756;6.172;2022-07-23T08:01:01;19.73;;;7.93;;
20181;SDS011;10250;50.756;6.172;2022-07-23T08:03:02;21.37;;;8.50;;
20181;SDS011;10250;50.756;6.172;2022-07-23T08:05:03;22.70;;;8.23;;
20181;SDS011;10250;50.756;6.172;2022-07-23T08:07:03;19.63;;;7.63;;
20181;SDS011;10250;50.756;6.172;2022-07-23T08:09:04;20.00;;;7.20;;
20181;SDS011;10250;50.756;6.172;2022-07-23T08:11:05;18.30;;;7.27;;
20181;SDS011;10250;50.756;6.172;2022-07-23T08:13:05;18.13;;;7.27;;
20181;SDS011;10250;50.756;6.172;2022-07-23T08:15:06;18.37;;;7.37;;
20181;SDS011;10250;50.756;6.172;2022-07-23T08:17:07;17.40;;;7.30;;
20181;SDS011;10250;50.756;6.172;2022-07-23T08:19:08;20.07;;;8.00;;
20181;SDS011;10250;50.756;6.172;2022-07-23T08:21:08;18.70;;;8.20;;
20181;SDS011;10250;50.756;6.172;2022-07-23T08:23:09;22.70;;;9.10;;
20181;SDS011;10250;50.756;6.172;2022-07-23T08:25:10;21.97;;;9.20;;
20181;SDS011;10250;50.756;6.172;2022-07-23T08:27:11;21.63;;;9.43;;
20181;SDS011;10250;50.756;6.172;2022-07-23T08:29:11;21.40;;;9.37;;
20181;SDS011;10250;50.756;6.172;2022-07-23T08:31:12;19.27;;;8.93;;
20181;SDS011;10250;50.756;6.172;2022-07-23T08:33:13;22.53;;;9.67;;
20181;SDS011;10250;50.756;6.172;2022-07-23T08:35:21;20.93;;;8.77;;
20181;SDS011;10250;50.756;6.172;2022-07-23T08:37:23;21.40;;;9.53;;
20181;SDS011;10250;50.756;6.172;2022-07-23T08:39:24;20.57;;;8.50;;
20181;SDS011;10250;50.756;6.172;2022-07-23T08:41:24;19.63;;;7.97;;
20181;SDS011;10250;50.756;6.172;2022-07-23T08:43:26;21.83;;;9.27;;
20181;SDS011;10250;50.756;6.172;2022-07-23T08:45:30;24.70;;;9.57;;
20181;SDS011;10250;50.756;6.172;2022-07-23T08:47:37;21.30;;;8.93;;
20181;SDS011;10250;50.756;6.172;2022-07-23T08:49:38;23.03;;;9.60;;
20181;SDS011;10250;50.756;6.172;2022-07-23T08:51:40;21.63;;;9.47;;
20181;SDS011;10250;50.756;6.172;2022-07-23T08:53:41;22.03;;;9.70;;
20181;SDS011;10250;50.756;6.172;2022-07-23T08:55:47;20.63;;;7.93;;
20181;SDS011;10250;50.756;6.172;2022-07-23T08:57:50;19.93;;;7.90;;
20181;SDS011;10250;50.756;6.172;2022-07-23T08:59:52;19.47;;;7.63;;
20181;SDS011;10250;50.756;6.172;2022-07-23T09:01:53;18.30;;;7.50;;
20181;SDS011;10250;50.756;6.172;2022-07-23T09:03:53;18.37;;;7.73;;
20181;SDS011;10250;50.756;6.172;2022-07-23T09:05:54;18.47;;;7.83;;
20181;SDS011;10250;50.756;6.172;2022-07-23T09:08:07;19.13;;;8.23;;
20181;SDS011;10250;50.756;6.172;2022-07-23T09:10:10;23.27;;;8.60;;
20181;SDS011;10250;50.756;6.172;2022-07-23T09:12:11;18.77;;;8.20;;
20181;SDS011;10250;50.756;6.172;2022-07-23T09:14:12;19.57;;;7.80;;
20181;SDS011;10250;50.756;6.172;2022-07-23T09:16:14;19.37;;;7.73;;
20181;SDS011;10250;50.756;6.172;2022-07-23T09:18:19;18.07;;;7.80;;
20181;SDS011;10250;50.756;6.172;2022-07-23T09:20:32;16.83;;;6.90;;
20181;SDS011;10250;50.756;6.172;2022-07-23T09:22:32;15.90;;;6.10;;
20181;SDS011;10250;50.756;6.172;2022-07-23T09:24:33;16.97;;;6.57;;
20181;SDS011;10250;50.756;6.172;2022-07-23T09:26:40;16.27;;;6.60;;
20181;SDS011;10250;50.756;6.172;2022-07-23T09:28:53;19.03;;;6.57;;
20181;SDS011;10250;50.756;6.172;2022-07-23T09:31:12;15.50;;;6.67;;
20181;SDS011;10250;50.756;6.172;2022-07-23T09:33:14;17.20;;;6.23;;
20181;SDS011;10250;50.756;6.172;2022-07-23T09:35:15;16.03;;;6.47;;
20181;SDS011;10250;50.756;6.172;2022-07-23T09:37:16;16.63;;;5.87;;
20181;SDS011;10250;50.756;6.172;2022-07-23T09:40:03;14.73;;;5.10;;
20181;SDS011;10250;50.756;6.172;2022-07-23T09:41:43;14.70;;;5.17;;
20181;SDS011;10250;50.756;6.172;2022-07-23T09:43:45;16.23;;;6.07;;
20181;SDS011;10250;50.756;6.172;2022-07-23T09:45:46;14.50;;;5.47;;
20181;SDS011;10250;50.756;6.172;2022-07-23T09:47:49;16.30;;;6.23;;
20181;SDS011;10250;50.756;6.172;2022-07-23T09:52:11;15.10;;;6.17;;
20181;SDS011;10250;50.756;6.172;2022-07-23T09:54:20;16.90;;;6.60;;
20181;SDS011;10250;50.756;6.172;2022-07-23T09:56:20;15.87;;;5.43;;
20181;SDS011;10250;50.756;6.172;2022-07-23T09:58:22;13.83;;;5.27;;
20181;SDS011;10250;50.756;6.172;2022-07-23T10:00:26;14.80;;;5.67;;
20181;SDS011;10250;50.756;6.172;2022-07-23T10:02:27;12.87;;;4.90;;
20181;SDS011;10250;50.756;6.172;2022-07-23T10:04:31;15.00;;;5.50;;
20181;SDS011;10250;50.756;6.172;2022-07-23T10:06:32;13.80;;;5.07;;
20181;SDS011;10250;50.756;6.172;2022-07-23T10:08:34;14.57;;;4.87;;
20181;SDS011;10250;50.756;6.172;2022-07-23T10:10:35;13.43;;;5.03;;
20181;SDS011;10250;50.756;6.172;2022-07-23T10:12:38;14.07;;;4.80;;
20181;SDS011;10250;50.756;6.172;2022-07-23T10:14:42;12.73;;;4.33;;
20181;SDS011;10250;50.756;6.172;2022-07-23T10:16:43;14.10;;;4.27;;
20181;SDS011;10250;50.756;6.172;2022-07-23T10:18:44;12.70;;;4.33;;
20181;SDS011;10250;50.756;6.172;2022-07-23T10:20:46;13.77;;;4.37;;
20181;SDS011;10250;50.756;6.172;2022-07-23T10:23:00;11.83;;;3.67;;
20181;SDS011;10250;50.756;6.172;2022-07-23T10:25:32;11.47;;;3.37;;
20181;SDS011;10250;50.756;6.172;2022-07-23T10:37:29;12.23;;;3.37;;
20181;SDS011;10250;50.756;6.172;2022-07-23T10:39:34;11.83;;;3.57;;
20181;SDS011;10250;50.756;6.172;2022-07-23T10:41:36;11.50;;;3.20;;
20181;SDS011;10250;50.756;6.172;2022-07-23T10:43:41;11.93;;;3.07;;
20181;SDS011;10250;50.756;6.172;2022-07-23T10:45:42;5.83;;;2.20;;
20181;SDS011;10250;50.756;6.172;2022-07-23T10:47:42;11.60;;;3.47;;
20181;SDS011;10250;50.756;6.172;2022-07-23T10:49:43;11.50;;;3.37;;
20181;SDS011;10250;50.756;6.172;2022-07-23T10:54:22;10.80;;;3.20;;
20181;SDS011;10250;50.756;6.172;2022-07-23T10:58:54;8.87;;;2.77;;
20181;SDS011;10250;50.756;6.172;2022-07-23T11:01:05;9.47;;;2.40;;
20181;SDS011;10250;50.756;6.172;2022-07-23T11:03:35;10.17;;;2.63;;
20181;SDS011;10250;50.756;6.172;2022-07-23T11:05:42;8.70;;;2.50;;
20181;SDS011;10250;50.756;6.172;2022-07-23T11:10:04;9.23;;;2.60;;
20181;SDS011;10250;50.756;6.172;2022-07-23T11:12:50;8.33;;;2.70;;
20181;SDS011;10250;50.756;6.172;2022-07-23T11:17:01;9.23;;;2.80;;
20181;SDS011;10250;50.756;6.172;2022-07-23T11:19:03;6.73;;;2.20;;
20181;SDS011;10250;50.756;6.172;2022-07-23T11:23:22;8.83;;;2.57;;
20181;SDS011;10250;50.756;6.172;2022-07-23T11:27:40;7.80;;;2.70;;
20181;SDS011;10250;50.756;6.172;2022-07-23T11:29:44;9.23;;;2.70;;
20181;SDS011;10250;50.756;6.172;2022-07-23T11:36:27;9.93;;;3.00;;
20181;SDS011;10250;50.756;6.172;2022-07-23T11:38:28;11.57;;;3.00;;
20181;SDS011;10250;50.756;6.172;2022-07-23T11:40:31;9.67;;;2.90;;
20181;SDS011;10250;50.756;6.172;2022-07-23T11:42:32;8.80;;;2.60;;
20181;SDS011;10250;50.756;6.172;2022-07-23T11:44:37;11.17;;;3.73;;
20181;SDS011;10250;50.756;6.172;2022-07-23T11:46:38;9.97;;;3.37;;
20181;SDS011;10250;50.756;6.172;2022-07-23T11:48:40;10.43;;;2.83;;
20181;SDS011;10250;50.756;6.172;2022-07-23T11:50:40;10.83;;;3.10;;
20181;SDS011;10250;50.756;6.172;2022-07-23T11:52:41;12.00;;;3.40;;
20181;SDS011;10250;50.756;6.172;2022-07-23T11:57:02;11.17;;;3.27;;
20181;SDS011;10250;50.756;6.172;2022-07-23T11:59:03;9.70;;;2.90;;
20181;SDS011;10250;50.756;6.172;2022-07-23T12:01:05;9.43;;;3.00;;
20181;SDS011;10250;50.756;6.172;2022-07-23T12:03:06;7.47;;;2.70;;
20181;SDS011;10250;50.756;6.172;2022-07-23T12:05:08;9.37;;;3.03;;
20181;SDS011;10250;50.756;6.172;2022-07-23T12:07:31;11.47;;;3.13;;
20181;SDS011;10250;50.756;6.172;2022-07-23T12:09:37;10.73;;;3.13;;
20181;SDS011;10250;50.756;6.172;2022-07-23T12:11:38;10.70;;;3.10;;
20181;SDS011;10250;50.756;6.172;2022-07-23T12:13:38;9.87;;;2.97;;
20181;SDS011;10250;50.756;6.172;2022-07-23T12:15:40;9.97;;;2.97;;
20181;SDS011;10250;50.756;6.172;2022-07-23T12:17:46;10.13;;;2.87;;
20181;SDS011;10250;50.756;6.172;2022-07-23T12:19:48;8.73;;;2.73;;
20181;SDS011;10250;50.756;6.172;2022-07-23T12:21:49;9.60;;;2.93;;
20181;SDS011;10250;50.756;6.172;2022-07-23T12:23:50;10.17;;;3.03;;
20181;SDS011;10250;50.756;6.172;2022-07-23T12:25:51;9.13;;;2.90;;
20181;SDS011;10250;50.756;6.172;2022-07-23T12:30:21;8.73;;;2.90;;
20181;SDS011;10250;50.756;6.172;2022-07-23T12:32:27;10.07;;;2.90;;
20181;SDS011;10250;50.756;6.172;2022-07-23T12:34:28;8.93;;;2.67;;
20181;SDS011;10250;50.756;6.172;2022-07-23T12:36:38;10.40;;;3.13;;
20181;SDS011;10250;50.756;6.172;2022-07-23T12:38:50;9.27;;;2.67;;
20181;SDS011;10250;50.756;6.172;2022-07-23T12:40:52;10.97;;;3.00;;